sensor_id;sensor_type;location;lat;lon;timestamp;temperature;humidity
41481;DHT22;27217;51.220;5.308;2023-03-21T00:00:39;10.70;99.90
41481;DHT22;27217;51.220;5.308;2023-03-21T00:03:05;10.70;99.90
41481;DHT22;27217;51.220;5.308;2023-03-21T00:05:31;10.90;99.90
41481;DHT22;27217;51.220;5.308;2023-03-21T00:07:56;10.90;99.90
41481;DHT22;27217;51.220;5.308;2023-03-21T00:10:22;10.80;99.90
41481;DHT22;27217;51.220;5.308;2023-03-21T00:12:48;10.90;99.90
41481;DHT22;27217;51.220;5.308;2023-03-21T00:15:23;11.00;99.90
41481;DHT22;27217;51.220;5.308;2023-03-21T00:17:52;11.00;99.90
41481;DHT22;27217;51.220;5.308;2023-03-21T00:20:18;10.90;99.90
41481;DHT22;27217;51.220;5.308;2023-03-21T00:22:45;11.10;99.90
41481;DHT22;27217;51.220;5.308;2023-03-21T00:25:11;10.90;99.90
41481;DHT22;27217;51.220;5.308;2023-03-21T00:27:37;10.90;99.90
41481;DHT22;27217;51.220;5.308;2023-03-21T00:30:04;10.70;99.90
41481;DHT22;27217;51.220;5.308;2023-03-21T00:32:30;10.80;99.90
41481;DHT22;27217;51.220;5.308;2023-03-21T00:34:57;10.70;99.90
41481;DHT22;27217;51.220;5.308;2023-03-21T00:37:23;10.80;99.90
41481;DHT22;27217;51.220;5.308;2023-03-21T00:39:49;10.70;99.90
41481;DHT22;27217;51.220;5.308;2023-03-21T00:42:15;10.60;99.90
41481;DHT22;27217;51.220;5.308;2023-03-21T00:44:41;10.70;99.90
41481;DHT22;27217;51.220;5.308;2023-03-21T00:47:09;10.80;99.90
41481;DHT22;27217;51.220;5.308;2023-03-21T00:49:36;10.70;99.90
41481;DHT22;27217;51.220;5.308;2023-03-21T00:52:08;10.60;99.90
41481;DHT22;27217;51.220;5.308;2023-03-21T00:54:36;10.60;99.90
41481;DHT22;27217;51.220;5.308;2023-03-21T00:57:03;10.70;99.90
41481;DHT22;27217;51.220;5.308;2023-03-21T00:59:30;10.60;99.90
41481;DHT22;27217;51.220;5.308;2023-03-21T01:01:55;10.60;99.90
41481;DHT22;27217;51.220;5.308;2023-03-21T01:04:25;10.70;99.90
41481;DHT22;27217;51.220;5.308;2023-03-21T01:06:53;10.70;99.90
41481;DHT22;27217;51.220;5.308;2023-03-21T01:09:21;10.70;99.90
41481;DHT22;27217;51.220;5.308;2023-03-21T01:11:48;10.90;99.90
41481;DHT22;27217;51.220;5.308;2023-03-21T01:14:16;10.90;99.90
41481;DHT22;27217;51.220;5.308;2023-03-21T01:16:43;10.80;99.90
41481;DHT22;27217;51.220;5.308;2023-03-21T01:19:13;10.90;99.90
41481;DHT22;27217;51.220;5.308;2023-03-21T01:21:39;11.30;99.90
41481;DHT22;27217;51.220;5.308;2023-03-21T01:24:06;11.10;99.90
41481;DHT22;27217;51.220;5.308;2023-03-21T01:26:31;11.00;99.90
41481;DHT22;27217;51.220;5.308;2023-03-21T01:28:57;11.10;99.90
41481;DHT22;27217;51.220;5.308;2023-03-21T01:31:24;11.10;99.90
41481;DHT22;27217;51.220;5.308;2023-03-21T01:33:50;11.20;99.90
41481;DHT22;27217;51.220;5.308;2023-03-21T01:36:22;11.00;99.90
41481;DHT22;27217;51.220;5.308;2023-03-21T01:38:48;10.90;99.90
41481;DHT22;27217;51.220;5.308;2023-03-21T01:41:27;10.70;99.90
41481;DHT22;27217;51.220;5.308;2023-03-21T01:43:53;10.40;99.90
41481;DHT22;27217;51.220;5.308;2023-03-21T01:52:07;10.50;99.90
41481;DHT22;27217;51.220;5.308;2023-03-21T01:54:37;10.40;99.90
41481;DHT22;27217;51.220;5.308;2023-03-21T01:57:09;10.50;99.90
41481;DHT22;27217;51.220;5.308;2023-03-21T01:59:41;10.40;99.90
41481;DHT22;27217;51.220;5.308;2023-03-21T02:02:12;10.30;99.90
41481;DHT22;27217;51.220;5.308;2023-03-21T02:04:42;10.30;99.90
41481;DHT22;27217;51.220;5.308;2023-03-21T02:07:31;10.20;99.90
41481;DHT22;27217;51.220;5.308;2023-03-21T02:10:03;10.40;99.90
41481;DHT22;27217;51.220;5.308;2023-03-21T02:12:30;10.30;99.90
41481;DHT22;27217;51.220;5.308;2023-03-21T02:14:57;10.30;99.90
41481;DHT22;27217;51.220;5.308;2023-03-21T02:18:06;10.40;99.90
41481;DHT22;27217;51.220;5.308;2023-03-21T02:37:25;10.40;99.90
41481;DHT22;27217;51.220;5.308;2023-03-21T02:40:08;10.50;99.90
41481;DHT22;27217;51.220;5.308;2023-03-21T02:45:19;10.70;99.90
41481;DHT22;27217;51.220;5.308;2023-03-21T02:48:00;10.70;99.90
41481;DHT22;27217;51.220;5.308;2023-03-21T02:53:08;10.40;99.90
41481;DHT22;27217;51.220;5.308;2023-03-21T02:55:36;10.40;99.90
41481;DHT22;27217;51.220;5.308;2023-03-21T02:58:05;10.50;99.90
41481;DHT22;27217;51.220;5.308;2023-03-21T03:00:32;10.70;99.90
41481;DHT22;27217;51.220;5.308;2023-03-21T03:02:59;10.60;99.90
41481;DHT22;27217;51.220;5.308;2023-03-21T03:05:30;10.30;99.90
41481;DHT22;27217;51.220;5.308;2023-03-21T03:11:27;10.60;99.90
41481;DHT22;27217;51.220;5.308;2023-03-21T03:18:59;10.40;99.90
41481;DHT22;27217;51.220;5.308;2023-03-21T03:29:07;10.30;99.90
41481;DHT22;27217;51.220;5.308;2023-03-21T03:31:38;10.30;99.90
41481;DHT22;27217;51.220;5.308;2023-03-21T03:34:11;10.40;99.90
41481;DHT22;27217;51.220;5.308;2023-03-21T03:36:44;10.60;99.90
41481;DHT22;27217;51.220;5.308;2023-03-21T03:39:13;10.60;99.90
41481;DHT22;27217;51.220;5.308;2023-03-21T03:41:50;10.50;99.90
41481;DHT22;27217;51.220;5.308;2023-03-21T03:44:18;10.30;99.90
41481;DHT22;27217;51.220;5.308;2023-03-21T03:46:55;10.10;99.90
41481;DHT22;27217;51.220;5.308;2023-03-21T03:49:25;10.10;99.90
41481;DHT22;27217;51.220;5.308;2023-03-21T03:51:57;10.40;99.90
41481;DHT22;27217;51.220;5.308;2023-03-21T03:54:37;10.50;99.90
41481;DHT22;27217;51.220;5.308;2023-03-21T03:57:04;10.50;99.90
41481;DHT22;27217;51.220;5.308;2023-03-21T03:59:43;10.60;99.90
41481;DHT22;27217;51.220;5.308;2023-03-21T04:02:09;10.40;99.90
41481;DHT22;27217;51.220;5.308;2023-03-21T04:04:35;10.50;99.90
41481;DHT22;27217;51.220;5.308;2023-03-21T04:07:02;10.50;99.90
41481;DHT22;27217;51.220;5.308;2023-03-21T04:09:28;10.40;99.90
41481;DHT22;27217;51.220;5.308;2023-03-21T04:11:55;10.40;99.90
41481;DHT22;27217;51.220;5.308;2023-03-21T04:14:22;10.80;99.90
41481;DHT22;27217;51.220;5.308;2023-03-21T04:16:48;10.50;99.90
41481;DHT22;27217;51.220;5.308;2023-03-21T04:19:15;10.40;99.90
41481;DHT22;27217;51.220;5.308;2023-03-21T04:21:41;10.20;99.90
41481;DHT22;27217;51.220;5.308;2023-03-21T04:24:07;10.20;99.90
41481;DHT22;27217;51.220;5.308;2023-03-21T04:26:34;10.30;99.90
41481;DHT22;27217;51.220;5.308;2023-03-21T04:29:01;10.30;99.90
41481;DHT22;27217;51.220;5.308;2023-03-21T04:31:30;10.60;99.90
41481;DHT22;27217;51.220;5.308;2023-03-21T04:34:00;10.70;99.90
41481;DHT22;27217;51.220;5.308;2023-03-21T04:36:27;10.70;99.90
41481;DHT22;27217;51.220;5.308;2023-03-21T04:38:56;10.60;99.90
41481;DHT22;27217;51.220;5.308;2023-03-21T04:41:26;10.50;99.90
41481;DHT22;27217;51.220;5.308;2023-03-21T04:43:53;10.60;99.90
41481;DHT22;27217;51.220;5.308;2023-03-21T04:46:19;10.60;99.90
41481;DHT22;27217;51.220;5.308;2023-03-21T04:48:44;10.60;99.90
41481;DHT22;27217;51.220;5.308;2023-03-21T04:51:12;10.40;99.90
41481;DHT22;27217;51.220;5.308;2023-03-21T04:53:38;10.50;99.90
41481;DHT22;27217;51.220;5.308;2023-03-21T04:56:07;10.50;99.90
41481;DHT22;27217;51.220;5.308;2023-03-21T04:58:33;10.50;99.90
41481;DHT22;27217;51.220;5.308;2023-03-21T05:00:59;10.60;99.90
41481;DHT22;27217;51.220;5.308;2023-03-21T05:03:27;10.40;99.90
41481;DHT22;27217;51.220;5.308;2023-03-21T05:06:02;10.70;99.90
41481;DHT22;27217;51.220;5.308;2023-03-21T05:08:28;10.60;99.90
41481;DHT22;27217;51.220;5.308;2023-03-21T05:10:54;10.60;99.90
41481;DHT22;27217;51.220;5.308;2023-03-21T05:13:20;10.60;99.90
41481;DHT22;27217;51.220;5.308;2023-03-21T05:15:47;10.70;99.90
41481;DHT22;27217;51.220;5.308;2023-03-21T05:18:12;10.80;99.90
41481;DHT22;27217;51.220;5.308;2023-03-21T05:20:40;11.10;99.90
41481;DHT22;27217;51.220;5.308;2023-03-21T05:23:26;11.20;99.90
41481;DHT22;27217;51.220;5.308;2023-03-21T05:25:56;11.30;99.90
41481;DHT22;27217;51.220;5.308;2023-03-21T05:28:21;10.90;99.90
41481;DHT22;27217;51.220;5.308;2023-03-21T05:30:47;10.70;99.90
41481;DHT22;27217;51.220;5.308;2023-03-21T05:33:13;10.70;99.90
41481;DHT22;27217;51.220;5.308;2023-03-21T05:35:39;10.60;99.90
41481;DHT22;27217;51.220;5.308;2023-03-21T05:38:05;10.50;99.90
41481;DHT22;27217;51.220;5.308;2023-03-21T05:40:30;10.60;99.90
41481;DHT22;27217;51.220;5.308;2023-03-21T05:42:56;10.80;99.90
41481;DHT22;27217;51.220;5.308;2023-03-21T05:45:22;10.80;99.90
41481;DHT22;27217;51.220;5.308;2023-03-21T05:47:49;10.80;99.90
41481;DHT22;27217;51.220;5.308;2023-03-21T05:50:14;10.60;99.90
41481;DHT22;27217;51.220;5.308;2023-03-21T05:52:41;10.50;99.90
41481;DHT22;27217;51.220;5.308;2023-03-21T05:55:08;10.60;99.90
41481;DHT22;27217;51.220;5.308;2023-03-21T05:57:34;10.40;99.90
41481;DHT22;27217;51.220;5.308;2023-03-21T06:00:04;10.40;99.90
41481;DHT22;27217;51.220;5.308;2023-03-21T06:02:31;10.40;99.90
41481;DHT22;27217;51.220;5.308;2023-03-21T06:04:57;10.30;99.90
41481;DHT22;27217;51.220;5.308;2023-03-21T06:07:22;10.40;99.90
41481;DHT22;27217;51.220;5.308;2023-03-21T06:09:48;10.30;99.90
41481;DHT22;27217;51.220;5.308;2023-03-21T06:12:14;10.40;99.90
41481;DHT22;27217;51.220;5.308;2023-03-21T06:14:40;10.60;99.90
41481;DHT22;27217;51.220;5.308;2023-03-21T06:17:06;10.80;99.90
41481;DHT22;27217;51.220;5.308;2023-03-21T06:19:32;10.70;99.90
41481;DHT22;27217;51.220;5.308;2023-03-21T06:21:58;10.80;99.90
41481;DHT22;27217;51.220;5.308;2023-03-21T06:24:24;10.90;99.90
41481;DHT22;27217;51.220;5.308;2023-03-21T06:26:50;10.60;99.90
41481;DHT22;27217;51.220;5.308;2023-03-21T06:29:16;10.70;99.90
41481;DHT22;27217;51.220;5.308;2023-03-21T06:31:42;10.80;99.90
41481;DHT22;27217;51.220;5.308;2023-03-21T06:34:08;10.60;99.90
41481;DHT22;27217;51.220;5.308;2023-03-21T06:36:36;10.80;99.90
41481;DHT22;27217;51.220;5.308;2023-03-21T06:39:02;10.80;99.90
41481;DHT22;27217;51.220;5.308;2023-03-21T06:41:28;10.60;99.90
41481;DHT22;27217;51.220;5.308;2023-03-21T06:43:54;10.60;99.90
41481;DHT22;27217;51.220;5.308;2023-03-21T06:46:20;10.40;99.90
41481;DHT22;27217;51.220;5.308;2023-03-21T06:48:46;10.50;99.90
41481;DHT22;27217;51.220;5.308;2023-03-21T06:51:13;10.60;99.90
41481;DHT22;27217;51.220;5.308;2023-03-21T06:53:41;10.60;99.90
41481;DHT22;27217;51.220;5.308;2023-03-21T06:56:11;10.80;99.90
41481;DHT22;27217;51.220;5.308;2023-03-21T06:58:37;10.70;99.90
41481;DHT22;27217;51.220;5.308;2023-03-21T07:01:04;10.80;99.90
41481;DHT22;27217;51.220;5.308;2023-03-21T07:03:30;10.60;99.90
41481;DHT22;27217;51.220;5.308;2023-03-21T07:05:57;10.70;99.90
41481;DHT22;27217;51.220;5.308;2023-03-21T07:08:23;10.90;99.90
41481;DHT22;27217;51.220;5.308;2023-03-21T07:10:55;10.80;99.90
41481;DHT22;27217;51.220;5.308;2023-03-21T07:13:21;11.00;99.90
41481;DHT22;27217;51.220;5.308;2023-03-21T07:15:47;10.90;99.90
41481;DHT22;27217;51.220;5.308;2023-03-21T07:18:13;11.20;99.90
41481;DHT22;27217;51.220;5.308;2023-03-21T07:20:39;11.10;99.90
41481;DHT22;27217;51.220;5.308;2023-03-21T07:23:05;11.10;99.90
41481;DHT22;27217;51.220;5.308;2023-03-21T07:25:32;11.00;99.90
41481;DHT22;27217;51.220;5.308;2023-03-21T07:27:57;10.80;99.90
41481;DHT22;27217;51.220;5.308;2023-03-21T07:30:24;10.60;99.90
41481;DHT22;27217;51.220;5.308;2023-03-21T07:32:49;10.50;99.90
41481;DHT22;27217;51.220;5.308;2023-03-21T07:35:16;10.40;99.90
41481;DHT22;27217;51.220;5.308;2023-03-21T07:37:42;10.40;99.90
41481;DHT22;27217;51.220;5.308;2023-03-21T07:40:10;10.70;99.90
41481;DHT22;27217;51.220;5.308;2023-03-21T07:42:38;10.50;99.90
41481;DHT22;27217;51.220;5.308;2023-03-21T07:45:07;10.60;99.90
41481;DHT22;27217;51.220;5.308;2023-03-21T07:47:34;10.40;99.90
41481;DHT22;27217;51.220;5.308;2023-03-21T07:49:59;10.70;99.90
41481;DHT22;27217;51.220;5.308;2023-03-21T07:52:25;10.40;99.90
41481;DHT22;27217;51.220;5.308;2023-03-21T07:54:51;10.30;99.90
41481;DHT22;27217;51.220;5.308;2023-03-21T07:57:17;10.40;99.90
41481;DHT22;27217;51.220;5.308;2023-03-21T07:59:44;10.50;99.90
41481;DHT22;27217;51.220;5.308;2023-03-21T08:02:14;10.60;99.90
41481;DHT22;27217;51.220;5.308;2023-03-21T08:04:39;10.50;99.90
41481;DHT22;27217;51.220;5.308;2023-03-21T08:07:05;10.40;99.90
41481;DHT22;27217;51.220;5.308;2023-03-21T08:09:31;10.30;99.90
41481;DHT22;27217;51.220;5.308;2023-03-21T08:11:57;10.50;99.90
41481;DHT22;27217;51.220;5.308;2023-03-21T08:14:22;10.60;99.90
41481;DHT22;27217;51.220;5.308;2023-03-21T08:16:48;10.60;99.90
41481;DHT22;27217;51.220;5.308;2023-03-21T08:19:14;10.70;99.90
41481;DHT22;27217;51.220;5.308;2023-03-21T08:21:43;10.70;99.90
41481;DHT22;27217;51.220;5.308;2023-03-21T08:24:09;10.70;99.90
41481;DHT22;27217;51.220;5.308;2023-03-21T08:26:35;10.60;99.90
41481;DHT22;27217;51.220;5.308;2023-03-21T08:29:01;10.60;99.90
41481;DHT22;27217;51.220;5.308;2023-03-21T08:31:27;10.80;99.90
41481;DHT22;27217;51.220;5.308;2023-03-21T08:33:54;10.80;99.90
41481;DHT22;27217;51.220;5.308;2023-03-21T08:36:22;10.70;99.90
41481;DHT22;27217;51.220;5.308;2023-03-21T08:38:48;10.80;99.90
41481;DHT22;27217;51.220;5.308;2023-03-21T08:41:19;10.60;99.90
41481;DHT22;27217;51.220;5.308;2023-03-21T08:43:47;10.70;99.90
41481;DHT22;27217;51.220;5.308;2023-03-21T08:46:16;10.90;99.90
41481;DHT22;27217;51.220;5.308;2023-03-21T08:48:42;10.90;99.90
41481;DHT22;27217;51.220;5.308;2023-03-21T08:51:09;11.10;99.90
41481;DHT22;27217;51.220;5.308;2023-03-21T08:53:36;11.10;99.90
41481;DHT22;27217;51.220;5.308;2023-03-21T08:56:02;11.00;99.90
41481;DHT22;27217;51.220;5.308;2023-03-21T08:58:28;11.00;99.90
41481;DHT22;27217;51.220;5.308;2023-03-21T09:00:53;11.20;99.90
41481;DHT22;27217;51.220;5.308;2023-03-21T09:03:19;11.30;99.90
41481;DHT22;27217;51.220;5.308;2023-03-21T09:05:45;11.40;99.90
41481;DHT22;27217;51.220;5.308;2023-03-21T09:08:11;11.50;99.90
41481;DHT22;27217;51.220;5.308;2023-03-21T09:10:38;11.50;99.90
41481;DHT22;27217;51.220;5.308;2023-03-21T09:13:04;11.40;99.90
41481;DHT22;27217;51.220;5.308;2023-03-21T09:15:30;11.50;99.90
41481;DHT22;27217;51.220;5.308;2023-03-21T09:17:57;11.80;99.90
41481;DHT22;27217;51.220;5.308;2023-03-21T09:20:39;11.70;99.90
41481;DHT22;27217;51.220;5.308;2023-03-21T09:23:08;11.80;99.90
41481;DHT22;27217;51.220;5.308;2023-03-21T09:25:35;11.90;99.90
41481;DHT22;27217;51.220;5.308;2023-03-21T09:28:02;12.10;99.90
41481;DHT22;27217;51.220;5.308;2023-03-21T09:30:47;12.00;99.90
41481;DHT22;27217;51.220;5.308;2023-03-21T09:33:13;12.30;99.90
41481;DHT22;27217;51.220;5.308;2023-03-21T09:35:43;12.30;99.90
41481;DHT22;27217;51.220;5.308;2023-03-21T09:38:09;12.30;99.90
41481;DHT22;27217;51.220;5.308;2023-03-21T09:46:09;12.20;99.90
41481;DHT22;27217;51.220;5.308;2023-03-21T09:48:43;12.20;99.90
41481;DHT22;27217;51.220;5.308;2023-03-21T09:51:14;12.10;99.90
41481;DHT22;27217;51.220;5.308;2023-03-21T09:53:43;12.10;99.90
41481;DHT22;27217;51.220;5.308;2023-03-21T09:56:15;12.10;99.90
41481;DHT22;27217;51.220;5.308;2023-03-21T09:58:51;12.20;99.90
41481;DHT22;27217;51.220;5.308;2023-03-21T10:01:23;12.10;99.90
41481;DHT22;27217;51.220;5.308;2023-03-21T10:03:53;12.10;99.90
41481;DHT22;27217;51.220;5.308;2023-03-21T10:06:21;12.20;99.90
41481;DHT22;27217;51.220;5.308;2023-03-21T10:09:18;12.40;99.90
41481;DHT22;27217;51.220;5.308;2023-03-21T10:12:06;12.70;99.90
41481;DHT22;27217;51.220;5.308;2023-03-21T10:14:40;12.50;99.90
41481;DHT22;27217;51.220;5.308;2023-03-21T10:17:36;12.60;99.90
41481;DHT22;27217;51.220;5.308;2023-03-21T10:20:31;12.90;99.90
41481;DHT22;27217;51.220;5.308;2023-03-21T10:22:58;13.20;99.90
41481;DHT22;27217;51.220;5.308;2023-03-21T10:25:54;13.30;99.90
41481;DHT22;27217;51.220;5.308;2023-03-21T10:28:26;13.40;99.90
41481;DHT22;27217;51.220;5.308;2023-03-21T10:30:58;13.50;99.90
41481;DHT22;27217;51.220;5.308;2023-03-21T10:33:28;13.90;99.90
41481;DHT22;27217;51.220;5.308;2023-03-21T10:36:10;13.90;99.90
41481;DHT22;27217;51.220;5.308;2023-03-21T10:38:42;14.10;99.90
41481;DHT22;27217;51.220;5.308;2023-03-21T10:41:10;14.10;99.90
41481;DHT22;27217;51.220;5.308;2023-03-21T10:43:38;14.00;99.90
41481;DHT22;27217;51.220;5.308;2023-03-21T10:46:28;14.00;99.90
41481;DHT22;27217;51.220;5.308;2023-03-21T10:48:54;14.20;99.90
41481;DHT22;27217;51.220;5.308;2023-03-21T10:51:26;14.00;99.90
41481;DHT22;27217;51.220;5.308;2023-03-21T10:54:04;13.80;99.90
41481;DHT22;27217;51.220;5.308;2023-03-21T10:56:37;13.50;99.90
41481;DHT22;27217;51.220;5.308;2023-03-21T10:59:05;13.40;99.90
41481;DHT22;27217;51.220;5.308;2023-03-21T11:01:56;13.70;99.90
41481;DHT22;27217;51.220;5.308;2023-03-21T11:04:25;13.40;99.90
41481;DHT22;27217;51.220;5.308;2023-03-21T11:06:57;13.60;99.90
41481;DHT22;27217;51.220;5.308;2023-03-21T11:09:26;13.80;99.90
41481;DHT22;27217;51.220;5.308;2023-03-21T11:12:13;14.00;99.90
41481;DHT22;27217;51.220;5.308;2023-03-21T11:14:41;13.90;99.90
41481;DHT22;27217;51.220;5.308;2023-03-21T11:19:59;13.40;99.90
41481;DHT22;27217;51.220;5.308;2023-03-21T11:22:28;13.70;99.90
41481;DHT22;27217;51.220;5.308;2023-03-21T11:25:09;13.90;99.90
41481;DHT22;27217;51.220;5.308;2023-03-21T11:27:47;14.50;99.90
41481;DHT22;27217;51.220;5.308;2023-03-21T11:30:21;14.70;99.90
41481;DHT22;27217;51.220;5.308;2023-03-21T11:32:54;14.70;99.90
41481;DHT22;27217;51.220;5.308;2023-03-21T11:35:37;14.80;99.90
41481;DHT22;27217;51.220;5.308;2023-03-21T11:38:05;15.20;99.90
41481;DHT22;27217;51.220;5.308;2023-03-21T11:40:33;14.80;99.90
41481;DHT22;27217;51.220;5.308;2023-03-21T11:43:25;14.90;99.90
41481;DHT22;27217;51.220;5.308;2023-03-21T11:46:07;15.10;99.90
41481;DHT22;27217;51.220;5.308;2023-03-21T11:48:45;15.10;99.90
41481;DHT22;27217;51.220;5.308;2023-03-21T11:54:35;15.60;99.90
41481;DHT22;27217;51.220;5.308;2023-03-21T12:00:20;16.00;99.90
41481;DHT22;27217;51.220;5.308;2023-03-21T12:05:59;17.40;99.90
41481;DHT22;27217;51.220;5.308;2023-03-21T12:11:37;17.20;99.90
41481;DHT22;27217;51.220;5.308;2023-03-21T12:14:29;16.40;99.90
41481;DHT22;27217;51.220;5.308;2023-03-21T12:24:54;16.30;99.90
41481;DHT22;27217;51.220;5.308;2023-03-21T12:27:27;15.80;99.90
41481;DHT22;27217;51.220;5.308;2023-03-21T12:35:20;16.60;99.90
41481;DHT22;27217;51.220;5.308;2023-03-21T12:46:12;16.00;99.90
41481;DHT22;27217;51.220;5.308;2023-03-21T12:48:49;15.90;99.90
41481;DHT22;27217;51.220;5.308;2023-03-21T12:51:23;15.50;99.90
41481;DHT22;27217;51.220;5.308;2023-03-21T12:53:52;15.50;99.90
41481;DHT22;27217;51.220;5.308;2023-03-21T12:57:14;16.20;99.90
41481;DHT22;27217;51.220;5.308;2023-03-21T12:59:41;16.40;99.90
41481;DHT22;27217;51.220;5.308;2023-03-21T13:02:22;16.10;99.90
41481;DHT22;27217;51.220;5.308;2023-03-21T13:07:18;16.30;99.90
41481;DHT22;27217;51.220;5.308;2023-03-21T13:09:46;17.50;99.90
41481;DHT22;27217;51.220;5.308;2023-03-21T13:15:06;19.00;99.90
41481;DHT22;27217;51.220;5.308;2023-03-21T13:17:47;18.40;99.00
41481;DHT22;27217;51.220;5.308;2023-03-21T13:20:25;17.70;99.90
41481;DHT22;27217;51.220;5.308;2023-03-21T13:22:53;16.50;99.90
41481;DHT22;27217;51.220;5.308;2023-03-21T13:25:21;16.00;99.90
41481;DHT22;27217;51.220;5.308;2023-03-21T13:27:53;16.20;99.90
41481;DHT22;27217;51.220;5.308;2023-03-21T13:30:24;15.90;99.90
41481;DHT22;27217;51.220;5.308;2023-03-21T13:32:54;15.90;99.90
41481;DHT22;27217;51.220;5.308;2023-03-21T13:35:38;15.50;99.90
41481;DHT22;27217;51.220;5.308;2023-03-21T13:38:09;15.30;99.90
41481;DHT22;27217;51.220;5.308;2023-03-21T13:41:05;15.10;99.90
41481;DHT22;27217;51.220;5.308;2023-03-21T13:43:42;15.60;99.90
41481;DHT22;27217;51.220;5.308;2023-03-21T13:46:24;15.70;99.90
41481;DHT22;27217;51.220;5.308;2023-03-21T13:55:45;17.70;99.90
41481;DHT22;27217;51.220;5.308;2023-03-21T14:05:06;19.20;97.60
41481;DHT22;27217;51.220;5.308;2023-03-21T14:11:15;19.70;94.40
41481;DHT22;27217;51.220;5.308;2023-03-21T14:13:43;18.30;97.70
41481;DHT22;27217;51.220;5.308;2023-03-21T14:26:14;16.70;99.90
41481;DHT22;27217;51.220;5.308;2023-03-21T14:35:31;16.00;99.90
41481;DHT22;27217;51.220;5.308;2023-03-21T14:41:25;15.70;99.90
41481;DHT22;27217;51.220;5.308;2023-03-21T14:44:11;15.50;99.90
41481;DHT22;27217;51.220;5.308;2023-03-21T14:46:38;15.60;99.90
41481;DHT22;27217;51.220;5.308;2023-03-21T14:51:48;15.80;99.90
41481;DHT22;27217;51.220;5.308;2023-03-21T14:54:16;15.50;99.90
41481;DHT22;27217;51.220;5.308;2023-03-21T14:56:45;15.50;99.90
41481;DHT22;27217;51.220;5.308;2023-03-21T14:59:16;15.60;99.90
41481;DHT22;27217;51.220;5.308;2023-03-21T15:01:44;15.80;99.90
41481;DHT22;27217;51.220;5.308;2023-03-21T15:04:11;15.70;99.90
41481;DHT22;27217;51.220;5.308;2023-03-21T15:06:58;15.40;99.90
41481;DHT22;27217;51.220;5.308;2023-03-21T15:09:28;15.10;99.90
41481;DHT22;27217;51.220;5.308;2023-03-21T15:11:56;15.40;99.90
41481;DHT22;27217;51.220;5.308;2023-03-21T15:14:33;15.50;99.90
41481;DHT22;27217;51.220;5.308;2023-03-21T15:17:01;15.30;99.90
41481;DHT22;27217;51.220;5.308;2023-03-21T15:19:34;15.10;99.90
41481;DHT22;27217;51.220;5.308;2023-03-21T15:22:01;15.30;99.90
41481;DHT22;27217;51.220;5.308;2023-03-21T15:24:38;15.60;99.90
41481;DHT22;27217;51.220;5.308;2023-03-21T15:27:07;15.50;99.90
41481;DHT22;27217;51.220;5.308;2023-03-21T15:29:36;15.50;99.90
41481;DHT22;27217;51.220;5.308;2023-03-21T15:32:04;15.10;99.90
41481;DHT22;27217;51.220;5.308;2023-03-21T15:34:31;14.90;99.90
41481;DHT22;27217;51.220;5.308;2023-03-21T15:37:02;14.90;99.90
41481;DHT22;27217;51.220;5.308;2023-03-21T15:39:30;15.10;99.90
41481;DHT22;27217;51.220;5.308;2023-03-21T15:42:23;15.50;99.90
41481;DHT22;27217;51.220;5.308;2023-03-21T15:44:52;16.00;99.90
41481;DHT22;27217;51.220;5.308;2023-03-21T15:47:39;16.10;99.90
41481;DHT22;27217;51.220;5.308;2023-03-21T15:50:31;16.20;99.90
41481;DHT22;27217;51.220;5.308;2023-03-21T15:53:00;16.00;99.90
41481;DHT22;27217;51.220;5.308;2023-03-21T15:58:05;15.80;99.90
41481;DHT22;27217;51.220;5.308;2023-03-21T16:00:37;15.40;99.90
41481;DHT22;27217;51.220;5.308;2023-03-21T16:03:13;15.40;99.90
41481;DHT22;27217;51.220;5.308;2023-03-21T16:06:15;15.00;99.90
41481;DHT22;27217;51.220;5.308;2023-03-21T16:08:45;14.70;99.90
41481;DHT22;27217;51.220;5.308;2023-03-21T16:13:40;14.60;99.90
41481;DHT22;27217;51.220;5.308;2023-03-21T16:16:18;14.60;99.90
41481;DHT22;27217;51.220;5.308;2023-03-21T16:18:49;14.60;99.90
41481;DHT22;27217;51.220;5.308;2023-03-21T16:21:18;14.70;99.90
41481;DHT22;27217;51.220;5.308;2023-03-21T16:23:45;14.60;99.90
41481;DHT22;27217;51.220;5.308;2023-03-21T16:26:20;14.60;99.90
41481;DHT22;27217;51.220;5.308;2023-03-21T16:28:48;14.70;99.90
41481;DHT22;27217;51.220;5.308;2023-03-21T16:31:23;14.50;99.90
41481;DHT22;27217;51.220;5.308;2023-03-21T16:33:50;13.90;99.90
41481;DHT22;27217;51.220;5.308;2023-03-21T16:36:21;13.80;99.90
41481;DHT22;27217;51.220;5.308;2023-03-21T16:38:48;13.60;99.90
41481;DHT22;27217;51.220;5.308;2023-03-21T16:41:17;13.50;99.90
41481;DHT22;27217;51.220;5.308;2023-03-21T16:43:44;13.30;99.90
41481;DHT22;27217;51.220;5.308;2023-03-21T16:46:22;12.80;99.90
41481;DHT22;27217;51.220;5.308;2023-03-21T16:48:53;12.60;99.90
41481;DHT22;27217;51.220;5.308;2023-03-21T16:51:31;12.50;99.90
41481;DHT22;27217;51.220;5.308;2023-03-21T16:53:58;12.40;99.90
41481;DHT22;27217;51.220;5.308;2023-03-21T16:56:35;12.70;99.90
41481;DHT22;27217;51.220;5.308;2023-03-21T16:59:02;12.60;99.90
41481;DHT22;27217;51.220;5.308;2023-03-21T17:01:29;12.50;99.90
41481;DHT22;27217;51.220;5.308;2023-03-21T17:03:56;12.60;99.90
41481;DHT22;27217;51.220;5.308;2023-03-21T17:06:27;13.00;99.90
41481;DHT22;27217;51.220;5.308;2023-03-21T17:08:54;13.20;99.90
41481;DHT22;27217;51.220;5.308;2023-03-21T17:11:23;13.00;99.90
41481;DHT22;27217;51.220;5.308;2023-03-21T17:13:51;12.90;99.90
41481;DHT22;27217;51.220;5.308;2023-03-21T17:16:23;12.90;99.90
41481;DHT22;27217;51.220;5.308;2023-03-21T17:18:50;12.50;99.90
41481;DHT22;27217;51.220;5.308;2023-03-21T17:21:19;12.50;99.90
41481;DHT22;27217;51.220;5.308;2023-03-21T17:23:45;12.60;99.90
41481;DHT22;27217;51.220;5.308;2023-03-21T17:26:13;12.50;99.90
41481;DHT22;27217;51.220;5.308;2023-03-21T17:28:40;12.70;99.90
41481;DHT22;27217;51.220;5.308;2023-03-21T17:31:15;12.80;99.90
41481;DHT22;27217;51.220;5.308;2023-03-21T17:33:43;12.60;99.90
41481;DHT22;27217;51.220;5.308;2023-03-21T17:36:34;12.50;99.90
41481;DHT22;27217;51.220;5.308;2023-03-21T17:39:01;12.70;99.90
41481;DHT22;27217;51.220;5.308;2023-03-21T17:41:28;12.80;99.90
41481;DHT22;27217;51.220;5.308;2023-03-21T17:43:53;12.80;99.90
41481;DHT22;27217;51.220;5.308;2023-03-21T17:46:21;12.30;99.90
41481;DHT22;27217;51.220;5.308;2023-03-21T17:48:48;12.50;99.90
41481;DHT22;27217;51.220;5.308;2023-03-21T17:51:14;12.50;99.90
41481;DHT22;27217;51.220;5.308;2023-03-21T17:53:46;12.70;99.90
41481;DHT22;27217;51.220;5.308;2023-03-21T17:56:23;12.50;99.90
41481;DHT22;27217;51.220;5.308;2023-03-21T17:58:53;12.40;99.90
41481;DHT22;27217;51.220;5.308;2023-03-21T18:01:19;12.50;99.90
41481;DHT22;27217;51.220;5.308;2023-03-21T18:03:45;12.20;99.90
41481;DHT22;27217;51.220;5.308;2023-03-21T18:06:19;12.20;99.90